createdAt,value
2022-09-03T00:01:38.391Z,5.75
2022-09-03T00:04:40.610Z,5.35
2022-09-03T00:07:12.113Z,4.70
2022-09-03T00:09:51.230Z,3.80
2022-09-03T00:12:22.136Z,3.60
2022-09-03T00:15:02.201Z,6.35
2022-09-03T00:17:48.280Z,3.65
2022-09-03T00:20:28.466Z,4.47
2022-09-03T00:22:55.757Z,4.35
2022-09-03T00:25:29.951Z,5.35
2022-09-03T00:27:57.938Z,3.95
2022-09-03T00:30:24.608Z,4.22
2022-09-03T00:33:01.959Z,4.03
2022-09-03T00:35:36.038Z,5.07
2022-09-03T00:38:02.658Z,4.37
2022-09-03T00:40:32.056Z,5.20
2022-09-03T00:43:23.230Z,5.90
2022-09-03T00:45:57.502Z,6.13
2022-09-03T00:48:30.889Z,7.38
2022-09-03T00:51:15.291Z,6.68
2022-09-03T00:54:12.152Z,6.95
2022-09-03T00:56:53.823Z,8.77
2022-09-03T00:59:30.786Z,7.88
2022-09-03T01:02:12.657Z,6.72
2022-09-03T01:04:57.618Z,7.20
2022-09-03T01:08:02.394Z,6.90
2022-09-03T01:10:50.257Z,6.10
2022-09-03T01:13:20.842Z,6.07
2022-09-03T01:16:02.584Z,7.50
2022-09-03T01:18:44.419Z,5.15
2022-09-03T01:21:31.773Z,7.28
2022-09-03T01:24:11.200Z,7.65
2022-09-03T01:27:10.667Z,9.02
2022-09-03T01:29:43.586Z,5.70
2022-09-03T01:32:35.672Z,6.25
2022-09-03T01:35:19.360Z,6.68
2022-09-03T01:37:51.841Z,4.28
2022-09-03T01:40:35.779Z,4.40
2022-09-03T01:43:36.782Z,5.28
2022-09-03T01:46:06.569Z,7.45
2022-09-03T01:48:52.313Z,5.70
2022-09-03T01:51:25.991Z,5.97
2022-09-03T01:54:20.793Z,6.82
2022-09-03T01:57:34.590Z,5.07
2022-09-03T02:00:06.900Z,7.72
2022-09-03T02:02:35.450Z,6.33
2022-09-03T02:05:09.409Z,5.05
2022-09-03T02:07:41.146Z,4.43
2022-09-03T02:10:11.592Z,5.32
2022-09-03T02:12:38.763Z,3.88
2022-09-03T02:15:12.459Z,5.05
2022-09-03T02:17:39.176Z,5.50
2022-09-03T02:20:08.257Z,3.65
2022-09-03T02:22:34.959Z,4.18
2022-09-03T02:25:01.613Z,6.32
2022-09-03T02:27:28.217Z,4.53
2022-09-03T02:29:56.909Z,5.13
2022-09-03T02:32:23.684Z,3.73
2022-09-03T02:34:50.283Z,4.57
2022-09-03T02:37:18.510Z,4.20
2022-09-03T02:39:45.631Z,3.80
2022-09-03T02:42:13.427Z,4.82
2022-09-03T02:44:46.764Z,5.27
2022-09-03T02:47:13.437Z,4.70
2022-09-03T02:49:40.096Z,6.10
2022-09-03T02:52:09.724Z,5.88
2022-09-03T02:54:39.746Z,6.97
2022-09-03T02:57:10.406Z,6.03
2022-09-03T02:59:37.066Z,5.00
2022-09-03T03:02:04.366Z,4.20
2022-09-03T03:04:31.529Z,4.33
2022-09-03T03:06:58.205Z,4.63
2022-09-03T03:09:24.835Z,4.53
2022-09-03T03:11:51.545Z,3.77
2022-09-03T03:14:18.772Z,3.67
2022-09-03T03:16:45.525Z,4.57
2022-09-03T03:19:12.375Z,5.88
2022-09-03T03:21:39.243Z,6.07
2022-09-03T03:24:06.031Z,4.87
2022-09-03T03:26:33.625Z,6.00
2022-09-03T03:29:01.161Z,5.93
2022-09-03T03:31:27.840Z,4.87
2022-09-03T03:33:55.538Z,4.47
2022-09-03T03:36:22.609Z,4.90
2022-09-03T03:38:49.254Z,4.17
2022-09-03T03:41:22.372Z,4.97
2022-09-03T03:43:52.235Z,3.07
2022-09-03T03:46:19.128Z,4.00
2022-09-03T03:48:50.344Z,3.90
2022-09-03T03:51:16.960Z,4.55
2022-09-03T03:53:43.658Z,3.73
2022-09-03T03:56:13.123Z,4.33
2022-09-03T03:58:44.650Z,6.17
2022-09-03T04:01:15.893Z,4.90
2022-09-03T04:03:42.783Z,4.97
2022-09-03T04:06:09.933Z,5.90
2022-09-03T04:08:38.350Z,3.77
2022-09-03T04:11:06.497Z,5.93
2022-09-03T04:13:34.392Z,5.97
2022-09-03T04:16:05.799Z,5.80
2022-09-03T04:18:32.781Z,6.30
2022-09-03T04:21:04.105Z,4.80
2022-09-03T04:23:32.146Z,4.90
2022-09-03T04:25:58.962Z,4.30
2022-09-03T04:28:25.668Z,5.33
2022-09-03T04:30:52.488Z,4.13
2022-09-03T04:33:19.309Z,4.43
2022-09-03T04:35:45.977Z,4.40
2022-09-03T04:38:13.391Z,5.37
2022-09-03T04:40:39.998Z,5.20
2022-09-03T04:43:06.681Z,5.00
2022-09-03T04:45:33.622Z,5.40
2022-09-03T04:48:03.648Z,5.40
2022-09-03T04:50:30.811Z,4.43
2022-09-03T04:53:04.527Z,4.80
2022-09-03T04:55:37.536Z,6.93
2022-09-03T04:58:04.935Z,4.60
2022-09-03T05:00:31.704Z,4.87
2022-09-03T05:03:00.987Z,4.32
2022-09-03T05:05:27.600Z,5.17
2022-09-03T05:07:57.810Z,4.13
2022-09-03T05:10:24.417Z,3.80
2022-09-03T05:13:00.879Z,5.55
2022-09-03T05:15:28.389Z,6.13
2022-09-03T05:18:02.120Z,7.43
2022-09-03T05:20:33.084Z,6.93
2022-09-03T05:23:03.911Z,6.43
2022-09-03T05:25:32.339Z,8.45
2022-09-03T05:27:59.238Z,6.05
2022-09-03T05:30:26.319Z,8.35
2022-09-03T05:32:52.964Z,7.75
2022-09-03T05:35:24.104Z,8.60
2022-09-03T05:37:55.055Z,3.78
2022-09-03T05:40:21.734Z,4.72
2022-09-03T05:42:48.452Z,4.88
2022-09-03T05:45:15.458Z,5.03
2022-09-03T05:47:43.792Z,4.55
2022-09-03T05:50:11.093Z,4.85
2022-09-03T05:52:38.035Z,8.48
2022-09-03T05:55:05.043Z,5.30
2022-09-03T05:57:31.831Z,4.80
2022-09-03T05:59:58.516Z,6.60
2022-09-03T06:02:25.305Z,6.75
2022-09-03T06:04:51.953Z,18.98
2022-09-03T06:07:18.668Z,21.95
2022-09-03T06:09:45.297Z,20.52
2022-09-03T06:12:12.028Z,10.32
2022-09-03T06:14:38.719Z,8.57
2022-09-03T06:17:05.336Z,5.28
2022-09-03T06:19:32.084Z,5.00
2022-09-03T06:21:58.699Z,3.53
2022-09-03T06:24:28.227Z,4.78
2022-09-03T06:26:58.032Z,6.20
2022-09-03T06:29:24.688Z,4.60
2022-09-03T06:31:51.431Z,3.83
2022-09-03T06:34:18.658Z,4.43
2022-09-03T06:36:46.059Z,6.97
2022-09-03T06:39:12.775Z,4.43
2022-09-03T06:41:40.221Z,5.35
2022-09-03T06:44:11.674Z,4.82
2022-09-03T06:46:39.136Z,5.05
2022-09-03T06:49:05.994Z,4.95
2022-09-03T06:51:35.518Z,4.60
2022-09-03T06:54:08.652Z,5.15
2022-09-03T06:56:39.927Z,4.55
2022-09-03T06:59:08.778Z,4.43
2022-09-03T07:01:35.761Z,5.15
2022-09-03T07:04:03.877Z,5.88
2022-09-03T07:06:38.610Z,5.00
2022-09-03T07:11:33.826Z,6.75
2022-09-03T07:14:00.593Z,6.70
2022-09-03T07:16:33.403Z,6.32
2022-09-03T07:19:01.160Z,8.00
2022-09-03T07:21:29.229Z,7.80
2022-09-03T07:23:56.124Z,5.30
2022-09-03T07:26:24.447Z,5.25
2022-09-03T07:28:51.264Z,7.60
2022-09-03T07:31:19.842Z,6.75
2022-09-03T07:33:47.169Z,6.75
2022-09-03T07:36:15.719Z,7.57
2022-09-03T07:38:47.832Z,8.68
2022-09-03T07:41:19.343Z,7.80
2022-09-03T07:43:55.504Z,7.10
2022-09-03T07:46:23.742Z,5.60
2022-09-03T07:48:55.722Z,8.80
2022-09-03T07:51:26.622Z,7.05
2022-09-03T07:54:00.255Z,7.93
2022-09-03T07:56:27.144Z,14.15
2022-09-03T07:58:55.618Z,10.27
2022-09-03T08:01:22.789Z,7.13
2022-09-03T08:03:51.092Z,7.18
2022-09-03T08:06:18.852Z,6.10
2022-09-03T08:08:45.745Z,7.07
2022-09-03T08:11:16.923Z,6.65
2022-09-03T08:13:48.572Z,5.88
2022-09-03T08:16:17.201Z,7.18
2022-09-03T08:18:44.066Z,10.80
2022-09-03T08:21:15.716Z,6.70
2022-09-03T08:23:45.802Z,11.00
2022-09-03T08:26:12.857Z,16.42
2022-09-03T08:28:40.057Z,14.77
2022-09-03T08:31:14.261Z,7.53
2022-09-03T08:33:43.262Z,5.93
2022-09-03T08:36:22.502Z,7.35
2022-09-03T08:38:52.474Z,5.70
2022-09-03T08:41:19.244Z,5.72
2022-09-03T08:44:12.154Z,5.53
2022-09-03T08:46:51.720Z,7.18
2022-09-03T08:49:43.597Z,5.97
2022-09-03T08:52:34.848Z,7.32
2022-09-03T08:55:03.455Z,5.93
2022-09-03T08:57:30.207Z,5.65
2022-09-03T08:59:56.891Z,8.70
2022-09-03T09:02:53.760Z,8.77
2022-09-03T09:05:48.630Z,7.45
2022-09-03T09:08:15.189Z,6.53
2022-09-03T09:10:48.742Z,6.72
2022-09-03T09:13:32.413Z,8.88
2022-09-03T09:16:17.686Z,6.75
2022-09-03T09:19:09.934Z,6.72
2022-09-03T09:21:41.387Z,5.93
2022-09-03T09:24:12.075Z,6.15
2022-09-03T09:26:43.284Z,7.00
2022-09-03T09:29:11.040Z,6.35
2022-09-03T09:31:40.864Z,8.38
2022-09-03T09:34:08.231Z,15.07
2022-09-03T09:36:42.436Z,7.93
2022-09-03T09:39:12.101Z,4.75
2022-09-03T09:41:38.718Z,14.65
2022-09-03T09:44:05.772Z,6.13
2022-09-03T09:46:36.875Z,6.70
2022-09-03T09:49:08.230Z,4.50
2022-09-03T09:51:34.842Z,8.60
2022-09-03T09:54:18.706Z,5.38
2022-09-03T09:56:45.563Z,5.70
2022-09-03T09:59:13.099Z,6.35
2022-09-03T10:01:41.328Z,9.85
2022-09-03T10:04:24.735Z,5.00
2022-09-03T10:06:57.348Z,5.05
2022-09-03T10:09:30.997Z,16.63
2022-09-03T10:12:14.647Z,24.55
2022-09-03T10:14:57.919Z,9.73
2022-09-03T10:17:37.100Z,5.07
2022-09-03T10:20:33.872Z,4.90
2022-09-03T10:23:18.142Z,5.22
2022-09-03T10:25:57.225Z,4.07
2022-09-03T10:28:30.210Z,4.30
2022-09-03T10:31:36.923Z,5.63
2022-09-03T10:34:12.687Z,7.25
2022-09-03T10:37:04.386Z,6.93
2022-09-03T10:39:53.035Z,6.88
2022-09-03T10:42:53.874Z,4.90
2022-09-03T10:45:20.483Z,5.55
2022-09-03T10:48:02.047Z,5.95
2022-09-03T10:50:52.913Z,5.90
2022-09-03T10:53:27.477Z,6.70
2022-09-03T10:56:13.483Z,6.18
2022-09-03T10:59:04.954Z,5.47
2022-09-03T11:01:53.508Z,7.20
2022-09-03T11:04:32.139Z,5.18
2022-09-03T11:07:06.053Z,6.30
2022-09-03T11:10:04.044Z,5.10
2022-09-03T11:12:39.184Z,5.82
2022-09-03T11:15:27.801Z,5.57
2022-09-03T11:18:13.428Z,5.45
2022-09-03T11:20:40.318Z,7.40
2022-09-03T11:23:06.979Z,5.53
2022-09-03T11:25:41.149Z,5.22
2022-09-03T11:28:18.298Z,5.70
2022-09-03T11:31:13.843Z,5.07
2022-09-03T11:33:43.801Z,4.38
2022-09-03T11:36:10.657Z,5.60
2022-09-03T11:38:39.119Z,5.93
2022-09-03T11:41:24.352Z,5.80
2022-09-03T11:43:50.972Z,7.80
2022-09-03T11:46:23.787Z,6.32
2022-09-03T11:48:51.571Z,5.00
2022-09-03T11:51:25.192Z,5.63
2022-09-03T11:54:05.586Z,5.53
2022-09-03T11:56:33.071Z,5.95
2022-09-03T11:59:04.284Z,6.47
2022-09-03T12:01:31.448Z,5.07
2022-09-03T12:04:03.572Z,5.03
2022-09-03T12:06:40.078Z,4.78
2022-09-03T12:09:18.483Z,5.13
2022-09-03T12:11:55.755Z,6.30
2022-09-03T12:14:40.987Z,5.20
2022-09-03T12:17:15.431Z,7.72
2022-09-03T12:19:55.984Z,5.45
2022-09-03T12:22:25.349Z,4.50
2022-09-03T12:24:52.287Z,5.40
2022-09-03T12:27:24.938Z,4.20
2022-09-03T12:30:02.382Z,5.68
2022-09-03T12:32:32.550Z,6.60
2022-09-03T12:35:11.156Z,4.05
2022-09-03T12:40:29.241Z,7.38
2022-09-03T12:46:14.791Z,4.22
2022-09-03T12:51:51.893Z,4.03
2022-09-03T12:54:19.974Z,18.80
2022-09-03T12:56:50.352Z,5.28
2022-09-03T12:59:18.062Z,7.15
2022-09-03T13:01:53.240Z,3.92
2022-09-03T13:04:32.500Z,5.00
2022-09-03T13:07:26.783Z,3.83
2022-09-03T13:09:54.210Z,4.63
2022-09-03T13:12:33.324Z,3.72
2022-09-03T13:15:06.013Z,4.18
2022-09-03T13:17:37.340Z,4.45
2022-09-03T13:20:22.700Z,4.47
2022-09-03T13:23:18.556Z,5.18
2022-09-03T13:26:16.427Z,4.63
2022-09-03T13:28:58.436Z,5.10
2022-09-03T13:31:27.888Z,5.03
2022-09-03T13:34:07.299Z,5.55
2022-09-03T13:36:57.269Z,3.95
2022-09-03T13:39:32.344Z,4.93
2022-09-03T13:42:06.805Z,4.47
2022-09-03T13:44:41.342Z,4.10
2022-09-03T13:47:37.219Z,5.75
2022-09-03T13:50:24.087Z,4.07
2022-09-03T13:53:26.348Z,5.13
2022-09-03T13:55:54.939Z,2.97
2022-09-03T13:58:37.061Z,5.50
2022-09-03T14:01:16.097Z,4.10
2022-09-03T14:03:50.935Z,11.60
2022-09-03T14:06:30.023Z,6.70
2022-09-03T14:09:07.440Z,3.30
2022-09-03T14:11:49.537Z,4.63
2022-09-03T14:14:48.422Z,5.38
2022-09-03T14:17:33.828Z,9.95
2022-09-03T14:20:05.553Z,5.22
2022-09-03T14:23:10.543Z,3.53
2022-09-03T14:25:37.226Z,3.97
2022-09-03T14:28:40.014Z,3.75
2022-09-03T14:31:15.652Z,4.10
2022-09-03T14:34:02.451Z,5.63
2022-09-03T14:36:30.852Z,4.38
2022-09-03T14:39:12.530Z,6.05
2022-09-03T14:41:50.652Z,5.63
2022-09-03T14:44:46.670Z,5.40
2022-09-03T14:47:13.201Z,3.38
2022-09-03T14:50:10.900Z,5.38
2022-09-03T14:52:58.833Z,4.68
2022-09-03T14:55:50.176Z,5.28
2022-09-03T14:58:43.561Z,4.38
2022-09-03T15:01:25.641Z,5.32
2022-09-03T15:04:08.351Z,6.15
2022-09-03T15:07:18.017Z,4.07
2022-09-03T15:09:47.495Z,4.05
2022-09-03T15:12:14.172Z,4.80
2022-09-03T15:14:54.250Z,4.97
2022-09-03T15:17:49.475Z,4.88
2022-09-03T15:20:27.579Z,5.55
2022-09-03T15:23:08.255Z,5.38
2022-09-03T15:26:09.615Z,5.80
2022-09-03T15:29:21.374Z,6.32
2022-09-03T15:31:59.924Z,23.27
2022-09-03T15:34:51.604Z,8.38
2022-09-03T15:37:39.308Z,13.57
2022-09-03T15:40:27.810Z,12.98
2022-09-03T15:43:05.071Z,5.28
2022-09-03T15:45:52.155Z,6.68
2022-09-03T15:48:31.105Z,5.35
2022-09-03T15:51:17.480Z,6.60
2022-09-03T15:53:52.822Z,5.53
2022-09-03T15:56:29.233Z,6.93
2022-09-03T15:59:25.358Z,16.50
2022-09-03T16:02:18.374Z,6.38
2022-09-03T16:05:30.031Z,8.25
2022-09-03T16:08:22.982Z,16.23
2022-09-03T16:11:08.861Z,6.97
2022-09-03T16:14:11.101Z,7.25
2022-09-03T16:16:37.989Z,6.65
2022-09-03T16:19:36.659Z,4.88
2022-09-03T16:22:25.563Z,6.45
2022-09-03T16:25:17.805Z,5.25
2022-09-03T16:28:00.643Z,13.25
2022-09-03T16:30:58.744Z,7.10
2022-09-03T16:35:55.063Z,15.70
2022-09-03T16:38:46.798Z,13.20
2022-09-03T16:41:34.615Z,12.32
2022-09-03T16:44:10.104Z,16.08
2022-09-03T16:46:41.056Z,10.18
2022-09-03T16:49:19.233Z,11.23
2022-09-03T16:52:39.632Z,18.52
2022-09-03T16:55:21.277Z,11.70
2022-09-03T16:58:08.079Z,8.93
2022-09-03T17:00:43.715Z,7.88
2022-09-03T17:03:32.788Z,6.78
2022-09-03T17:06:07.025Z,8.07
2022-09-03T17:09:12.078Z,6.70
2022-09-03T17:12:15.158Z,5.27
2022-09-03T17:14:42.613Z,5.22
2022-09-03T17:17:18.362Z,5.65
2022-09-03T17:19:59.800Z,7.00
2022-09-03T17:23:00.714Z,16.60
2022-09-03T17:25:57.651Z,6.15
2022-09-03T17:28:41.319Z,5.43
2022-09-03T17:31:41.540Z,6.20
2022-09-03T17:34:17.232Z,6.88
2022-09-03T17:37:05.450Z,7.85
2022-09-03T17:39:52.125Z,5.32
2022-09-03T17:42:51.850Z,5.90
2022-09-03T17:45:37.816Z,10.27
2022-09-03T17:48:21.495Z,7.05
2022-09-03T17:50:57.480Z,7.47
2022-09-03T17:53:32.238Z,7.57
2022-09-03T17:56:04.616Z,7.43
2022-09-03T17:58:54.955Z,5.95
2022-09-03T18:01:26.405Z,10.90
2022-09-03T18:04:04.500Z,6.20
2022-09-03T18:06:37.848Z,6.90
2022-09-03T18:09:10.885Z,11.20
2022-09-03T18:11:39.766Z,9.13
2022-09-03T18:14:26.492Z,19.63
2022-09-03T18:17:00.536Z,6.25
2022-09-03T18:19:31.335Z,7.60
2022-09-03T18:22:19.662Z,7.70
2022-09-03T18:25:12.623Z,6.78
2022-09-03T18:28:00.822Z,8.20
2022-09-03T18:30:46.947Z,8.48
2022-09-03T18:33:32.438Z,8.68
2022-09-03T18:39:02.661Z,11.35
2022-09-03T18:42:11.232Z,9.30
2022-09-03T18:45:23.245Z,9.05
2022-09-03T18:48:24.875Z,9.73
2022-09-03T18:51:37.711Z,7.32
2022-09-03T18:55:06.335Z,8.25
2022-09-03T18:57:55.676Z,10.82
2022-09-03T19:00:41.054Z,9.80
2022-09-03T19:06:57.187Z,8.88
2022-09-03T19:10:07.995Z,7.05
2022-09-03T19:13:03.108Z,8.77
2022-09-03T19:15:56.457Z,7.85
2022-09-03T19:19:16.033Z,9.77
2022-09-03T19:22:09.545Z,8.15
2022-09-03T19:24:54.731Z,9.43
2022-09-03T19:28:00.348Z,7.53
2022-09-03T19:31:03.099Z,8.18
2022-09-03T19:34:16.679Z,6.47
2022-09-03T19:37:30.811Z,7.10
2022-09-03T19:40:37.869Z,8.30
2022-09-03T19:43:44.522Z,13.00
2022-09-03T19:46:50.141Z,10.60
2022-09-03T19:49:57.350Z,8.75
2022-09-03T19:53:05.835Z,10.50
2022-09-03T19:55:53.441Z,7.53
2022-09-03T19:58:44.074Z,8.95
2022-09-03T20:01:30.261Z,10.02
2022-09-03T20:04:17.004Z,11.68
2022-09-03T20:07:02.173Z,8.35
2022-09-03T20:09:51.643Z,8.52
2022-09-03T20:12:18.380Z,8.90
2022-09-03T20:14:45.018Z,9.07
2022-09-03T20:17:28.469Z,7.78
2022-09-03T20:20:10.454Z,9.98
2022-09-03T20:22:58.882Z,9.07
2022-09-03T20:25:51.845Z,7.88
2022-09-03T20:28:33.926Z,7.00
2022-09-03T20:31:19.271Z,10.15
2022-09-03T20:36:42.870Z,7.10
2022-09-03T20:39:24.492Z,10.68
2022-09-03T20:42:15.154Z,9.55
2022-09-03T20:45:11.620Z,10.73
2022-09-03T20:48:23.914Z,8.80
2022-09-03T20:50:57.825Z,9.35
2022-09-03T20:53:43.506Z,8.30
2022-09-03T20:56:31.165Z,9.45
2022-09-03T20:59:03.829Z,8.77
2022-09-03T21:01:33.695Z,9.00
2022-09-03T21:04:28.821Z,8.63
2022-09-03T21:06:58.720Z,12.35
2022-09-03T21:09:31.569Z,8.15
2022-09-03T21:12:03.191Z,8.23
2022-09-03T21:14:54.754Z,7.00
2022-09-03T21:17:45.464Z,7.65
2022-09-03T21:20:51.413Z,7.90
2022-09-03T21:23:36.815Z,7.85
2022-09-03T21:26:09.376Z,7.75
2022-09-03T21:28:40.415Z,9.32
2022-09-03T21:31:21.236Z,7.25
2022-09-03T21:33:51.265Z,8.65
2022-09-03T21:36:25.878Z,5.65
2022-09-03T21:39:10.476Z,6.53
2022-09-03T21:41:43.018Z,7.38
2022-09-03T21:44:38.886Z,8.98
2022-09-03T21:47:10.079Z,8.55
2022-09-03T21:49:58.376Z,8.98
2022-09-03T21:52:36.968Z,8.85
2022-09-03T21:55:16.084Z,8.45
2022-09-03T21:58:09.482Z,11.48
2022-09-03T22:00:37.331Z,9.23
2022-09-03T22:03:03.954Z,10.65
2022-09-03T22:05:51.631Z,8.18
2022-09-03T22:08:24.438Z,11.05
2022-09-03T22:10:57.051Z,15.57
2022-09-03T22:13:29.573Z,8.38
2022-09-03T22:16:14.371Z,7.45
2022-09-03T22:18:41.203Z,9.40
2022-09-03T22:21:11.590Z,7.72
2022-09-03T22:23:44.153Z,10.85
2022-09-03T22:26:24.107Z,12.68
2022-09-03T22:28:55.433Z,11.93
2022-09-03T22:31:43.050Z,9.18
2022-09-03T22:34:36.852Z,8.00
2022-09-03T22:37:06.921Z,7.57
2022-09-03T22:39:36.665Z,18.35
2022-09-03T22:42:28.234Z,32.42
2022-09-03T22:45:05.329Z,28.65
2022-09-03T22:47:53.133Z,23.65
2022-09-03T22:50:29.622Z,16.48
2022-09-03T22:53:04.647Z,15.45
2022-09-03T22:55:31.341Z,11.65
2022-09-03T22:58:19.343Z,8.80
2022-09-03T23:00:48.962Z,8.02
2022-09-03T23:03:52.083Z,8.75
2022-09-03T23:06:26.189Z,8.70
2022-09-03T23:09:03.418Z,9.70
2022-09-03T23:11:39.632Z,7.70
2022-09-03T23:14:08.314Z,6.60
2022-09-03T23:16:35.424Z,7.18
2022-09-03T23:21:50.174Z,8.80
2022-09-03T23:24:21.245Z,7.15
2022-09-03T23:26:51.416Z,7.95
2022-09-03T23:29:41.269Z,8.25
2022-09-03T23:32:09.440Z,8.07
2022-09-03T23:34:40.694Z,7.65
2022-09-03T23:37:35.285Z,6.70
2022-09-03T23:40:08.420Z,6.50
2022-09-03T23:42:47.030Z,7.95
2022-09-03T23:45:16.517Z,7.43
2022-09-03T23:47:51.302Z,8.05
2022-09-03T23:50:40.078Z,9.00
2022-09-03T23:53:48.698Z,8.40
2022-09-03T23:56:30.634Z,8.60
2022-09-03T23:59:54.718Z,10.30
